sensor_id;sensor_type;location;lat;lon;timestamp;pressure;altitude;pressure_sealevel;temperature;humidity
71795;BME280;59641;45.188;5.712;2023-06-04T00:01:03;99218.31;;;21.22;59.46
71795;BME280;59641;45.188;5.712;2023-06-04T00:03:29;99220.53;;;21.20;59.40
71795;BME280;59641;45.188;5.712;2023-06-04T00:05:55;99218.88;;;21.19;59.43
71795;BME280;59641;45.188;5.712;2023-06-04T00:08:20;99220.00;;;21.18;59.70
71795;BME280;59641;45.188;5.712;2023-06-04T00:10:46;99221.13;;;21.17;59.64
71795;BME280;59641;45.188;5.712;2023-06-04T00:13:12;99218.38;;;21.17;59.20
71795;BME280;59641;45.188;5.712;2023-06-04T00:15:37;99221.41;;;21.15;59.45
71795;BME280;59641;45.188;5.712;2023-06-04T00:18:03;99218.75;;;21.10;59.63
71795;BME280;59641;45.188;5.712;2023-06-04T00:20:28;99216.59;;;21.07;59.68
71795;BME280;59641;45.188;5.712;2023-06-04T00:22:53;99214.44;;;21.04;59.65
71795;BME280;59641;45.188;5.712;2023-06-04T00:25:19;99218.03;;;20.99;60.29
71795;BME280;59641;45.188;5.712;2023-06-04T00:27:44;99206.63;;;20.97;60.52
71795;BME280;59641;45.188;5.712;2023-06-04T00:30:10;99203.91;;;20.97;59.80
71795;BME280;59641;45.188;5.712;2023-06-04T00:32:35;99199.81;;;20.95;60.27
71795;BME280;59641;45.188;5.712;2023-06-04T00:35:02;99200.13;;;20.93;60.67
71795;BME280;59641;45.188;5.712;2023-06-04T00:37:29;99207.19;;;20.94;60.86
71795;BME280;59641;45.188;5.712;2023-06-04T00:39:55;99201.75;;;20.94;60.73
71795;BME280;59641;45.188;5.712;2023-06-04T00:42:20;99193.28;;;20.96;60.97
71795;BME280;59641;45.188;5.712;2023-06-04T00:44:46;99194.09;;;20.96;60.98
71795;BME280;59641;45.188;5.712;2023-06-04T00:47:14;99197.34;;;20.98;60.40
71795;BME280;59641;45.188;5.712;2023-06-04T00:49:40;99190.84;;;20.94;60.64
71795;BME280;59641;45.188;5.712;2023-06-04T00:52:08;99191.72;;;20.90;61.07
71795;BME280;59641;45.188;5.712;2023-06-04T00:54:34;99182.72;;;20.89;60.70
71795;BME280;59641;45.188;5.712;2023-06-04T00:57:00;99193.63;;;20.89;60.84
71795;BME280;59641;45.188;5.712;2023-06-04T00:59:25;99193.34;;;20.91;60.92
71795;BME280;59641;45.188;5.712;2023-06-04T01:01:58;99203.94;;;20.92;61.03
71795;BME280;59641;45.188;5.712;2023-06-04T01:04:28;99194.16;;;20.91;60.90
71795;BME280;59641;45.188;5.712;2023-06-04T01:06:56;99191.16;;;20.93;60.97
71795;BME280;59641;45.188;5.712;2023-06-04T01:09:26;99185.97;;;20.91;61.06
71795;BME280;59641;45.188;5.712;2023-06-04T01:11:51;99186.78;;;20.92;60.85
71795;BME280;59641;45.188;5.712;2023-06-04T01:14:17;99191.94;;;20.93;60.96
71795;BME280;59641;45.188;5.712;2023-06-04T01:16:52;99187.59;;;20.92;60.92
71795;BME280;59641;45.188;5.712;2023-06-04T01:25:02;99188.78;;;20.86;60.64
71795;BME280;59641;45.188;5.712;2023-06-04T01:27:29;99192.09;;;20.83;60.72
71795;BME280;59641;45.188;5.712;2023-06-04T01:29:55;99192.91;;;20.83;60.59
71795;BME280;59641;45.188;5.712;2023-06-04T01:32:23;99195.63;;;20.83;60.43
71795;BME280;59641;45.188;5.712;2023-06-04T01:34:49;99186.91;;;20.81;60.15
71795;BME280;59641;45.188;5.712;2023-06-04T01:37:14;99193.47;;;20.80;60.20
71795;BME280;59641;45.188;5.712;2023-06-04T01:39:41;99202.75;;;20.79;60.13
71795;BME280;59641;45.188;5.712;2023-06-04T01:42:08;99202.22;;;20.77;60.44
71795;BME280;59641;45.188;5.712;2023-06-04T01:44:33;99200.31;;;20.78;60.43
71795;BME280;59641;45.188;5.712;2023-06-04T01:46:58;99205.75;;;20.78;60.59
71795;BME280;59641;45.188;5.712;2023-06-04T01:49:24;99191.31;;;20.77;60.49
71795;BME280;59641;45.188;5.712;2023-06-04T01:51:49;99190.50;;;20.77;59.96
71795;BME280;59641;45.188;5.712;2023-06-04T01:54:15;99197.38;;;20.74;59.68
71795;BME280;59641;45.188;5.712;2023-06-04T01:56:41;99192.25;;;20.68;59.99
71795;BME280;59641;45.188;5.712;2023-06-04T01:59:06;99195.56;;;20.64;60.10
71795;BME280;59641;45.188;5.712;2023-06-04T02:01:33;99193.94;;;20.63;59.76
71795;BME280;59641;45.188;5.712;2023-06-04T02:03:59;99202.41;;;20.62;59.83
71795;BME280;59641;45.188;5.712;2023-06-04T02:06:24;99197.25;;;20.60;59.47
71795;BME280;59641;45.188;5.712;2023-06-04T02:08:55;99207.63;;;20.58;59.63
71795;BME280;59641;45.188;5.712;2023-06-04T02:11:21;99199.44;;;20.58;59.48
71795;BME280;59641;45.188;5.712;2023-06-04T02:13:46;99203.28;;;20.57;59.42
71795;BME280;59641;45.188;5.712;2023-06-04T02:16:11;99203.00;;;20.54;59.46
71795;BME280;59641;45.188;5.712;2023-06-04T02:18:37;99197.88;;;20.52;59.66
71795;BME280;59641;45.188;5.712;2023-06-04T02:21:02;99194.03;;;20.53;59.63
71795;BME280;59641;45.188;5.712;2023-06-04T02:23:28;99195.94;;;20.53;59.57
71795;BME280;59641;45.188;5.712;2023-06-04T02:25:53;99195.13;;;20.52;59.51
71795;BME280;59641;45.188;5.712;2023-06-04T02:28:18;99198.38;;;20.54;59.46
71795;BME280;59641;45.188;5.712;2023-06-04T02:30:44;99190.50;;;20.53;59.97
71795;BME280;59641;45.188;5.712;2023-06-04T02:33:11;99192.09;;;20.54;59.59
71795;BME280;59641;45.188;5.712;2023-06-04T02:35:36;99188.03;;;20.51;60.16
71795;BME280;59641;45.188;5.712;2023-06-04T02:38:02;99186.97;;;20.52;60.08
71795;BME280;59641;45.188;5.712;2023-06-04T02:40:27;99192.69;;;20.51;60.12
71795;BME280;59641;45.188;5.712;2023-06-04T02:42:53;99195.69;;;20.49;59.98
71795;BME280;59641;45.188;5.712;2023-06-04T02:45:19;99196.81;;;20.48;60.61
71795;BME280;59641;45.188;5.712;2023-06-04T02:47:45;99213.97;;;20.49;60.29
71795;BME280;59641;45.188;5.712;2023-06-04T02:50:12;99200.66;;;20.47;60.44
71795;BME280;59641;45.188;5.712;2023-06-04T02:52:38;99198.72;;;20.48;60.45
71795;BME280;59641;45.188;5.712;2023-06-04T02:55:06;99207.72;;;20.48;60.50
71795;BME280;59641;45.188;5.712;2023-06-04T02:57:32;99211.25;;;20.49;60.28
71795;BME280;59641;45.188;5.712;2023-06-04T02:59:57;99217.81;;;20.48;60.46
71795;BME280;59641;45.188;5.712;2023-06-04T03:02:23;99214.28;;;20.47;60.28
71795;BME280;59641;45.188;5.712;2023-06-04T03:04:48;99213.44;;;20.47;60.33
71795;BME280;59641;45.188;5.712;2023-06-04T03:07:16;99215.66;;;20.45;60.53
71795;BME280;59641;45.188;5.712;2023-06-04T03:09:46;99219.78;;;20.42;60.69
71795;BME280;59641;45.188;5.712;2023-06-04T03:12:12;99220.34;;;20.39;60.57
71795;BME280;59641;45.188;5.712;2023-06-04T03:14:38;99214.09;;;20.38;60.61
71795;BME280;59641;45.188;5.712;2023-06-04T03:17:04;99226.91;;;20.38;60.88
71795;BME280;59641;45.188;5.712;2023-06-04T03:19:38;99220.66;;;20.37;60.72
71795;BME280;59641;45.188;5.712;2023-06-04T03:22:04;99215.47;;;20.36;60.82
71795;BME280;59641;45.188;5.712;2023-06-04T03:24:34;99211.94;;;20.35;61.04
71795;BME280;59641;45.188;5.712;2023-06-04T03:27:00;99225.25;;;20.37;60.74
71795;BME280;59641;45.188;5.712;2023-06-04T03:29:26;99216.59;;;20.35;60.83
71795;BME280;59641;45.188;5.712;2023-06-04T03:31:52;99223.91;;;20.34;60.66
71795;BME280;59641;45.188;5.712;2023-06-04T03:34:17;99216.06;;;20.33;60.97
71795;BME280;59641;45.188;5.712;2023-06-04T03:36:42;99212.22;;;20.34;60.71
71795;BME280;59641;45.188;5.712;2023-06-04T03:39:08;99214.66;;;20.35;60.81
71795;BME280;59641;45.188;5.712;2023-06-04T03:41:33;99208.91;;;20.37;60.73
71795;BME280;59641;45.188;5.712;2023-06-04T03:43:59;99224.97;;;20.38;60.86
71795;BME280;59641;45.188;5.712;2023-06-04T03:46:24;99222.25;;;20.38;60.60
71795;BME280;59641;45.188;5.712;2023-06-04T03:48:56;99227.44;;;20.40;60.68
71795;BME280;59641;45.188;5.712;2023-06-04T03:51:22;99229.56;;;20.43;60.53
71795;BME280;59641;45.188;5.712;2023-06-04T03:53:47;99220.28;;;20.44;60.22
71795;BME280;59641;45.188;5.712;2023-06-04T03:56:12;99218.38;;;20.45;60.08
71795;BME280;59641;45.188;5.712;2023-06-04T03:58:39;99220.81;;;20.46;59.83
71795;BME280;59641;45.188;5.712;2023-06-04T04:01:04;99233.34;;;20.47;59.54
71795;BME280;59641;45.188;5.712;2023-06-04T04:03:30;99230.31;;;20.49;59.64
71795;BME280;59641;45.188;5.712;2023-06-04T04:05:57;99228.72;;;20.48;59.57
71795;BME280;59641;45.188;5.712;2023-06-04T04:08:25;99224.34;;;20.47;59.39
71795;BME280;59641;45.188;5.712;2023-06-04T04:10:51;99226.56;;;20.45;59.38
71795;BME280;59641;45.188;5.712;2023-06-04T04:13:17;99219.47;;;20.43;59.50
71795;BME280;59641;45.188;5.712;2023-06-04T04:15:42;99217.88;;;20.42;59.86
71795;BME280;59641;45.188;5.712;2023-06-04T04:18:08;99217.34;;;20.40;59.89
71795;BME280;59641;45.188;5.712;2023-06-04T04:20:33;99222.19;;;20.43;59.67
71795;BME280;59641;45.188;5.712;2023-06-04T04:22:59;99217.56;;;20.44;59.40
71795;BME280;59641;45.188;5.712;2023-06-04T04:25:24;99224.13;;;20.43;59.36
71795;BME280;59641;45.188;5.712;2023-06-04T04:27:49;99221.13;;;20.45;59.40
71795;BME280;59641;45.188;5.712;2023-06-04T04:30:15;99221.13;;;20.45;59.10
71795;BME280;59641;45.188;5.712;2023-06-04T04:32:42;99213.22;;;20.43;59.26
71795;BME280;59641;45.188;5.712;2023-06-04T04:35:14;99215.94;;;20.43;58.75
71795;BME280;59641;45.188;5.712;2023-06-04T04:37:43;99216.22;;;20.41;58.73
71795;BME280;59641;45.188;5.712;2023-06-04T04:40:10;99218.94;;;20.41;58.97
71795;BME280;59641;45.188;5.712;2023-06-04T04:42:36;99218.94;;;20.41;58.62
71795;BME280;59641;45.188;5.712;2023-06-04T04:45:02;99221.41;;;20.43;58.43
71795;BME280;59641;45.188;5.712;2023-06-04T04:47:27;99221.13;;;20.45;58.65
71795;BME280;59641;45.188;5.712;2023-06-04T04:49:52;99221.41;;;20.43;58.64
71795;BME280;59641;45.188;5.712;2023-06-04T04:52:18;99217.06;;;20.42;58.36
71795;BME280;59641;45.188;5.712;2023-06-04T04:54:43;99218.13;;;20.41;58.24
71795;BME280;59641;45.188;5.712;2023-06-04T04:57:08;99227.13;;;20.41;58.60
71795;BME280;59641;45.188;5.712;2023-06-04T04:59:34;99227.13;;;20.41;58.50
71795;BME280;59641;45.188;5.712;2023-06-04T05:01:59;99227.13;;;20.41;58.60
71795;BME280;59641;45.188;5.712;2023-06-04T05:04:25;99235.03;;;20.43;58.46
71795;BME280;59641;45.188;5.712;2023-06-04T05:06:50;99224.41;;;20.41;58.60
71795;BME280;59641;45.188;5.712;2023-06-04T05:09:15;99223.59;;;20.41;58.68
71795;BME280;59641;45.188;5.712;2023-06-04T05:11:41;99222.50;;;20.42;58.59
71795;BME280;59641;45.188;5.712;2023-06-04T05:14:06;99229.03;;;20.41;58.60
71795;BME280;59641;45.188;5.712;2023-06-04T05:16:32;99226.31;;;20.41;58.39
71795;BME280;59641;45.188;5.712;2023-06-04T05:19:00;99218.13;;;20.41;58.66
71795;BME280;59641;45.188;5.712;2023-06-04T05:21:27;99223.88;;;20.39;58.64
71795;BME280;59641;45.188;5.712;2023-06-04T05:23:54;99230.72;;;20.37;58.29
71795;BME280;59641;45.188;5.712;2023-06-04T05:26:20;99227.97;;;20.37;58.63
71795;BME280;59641;45.188;5.712;2023-06-04T05:28:53;99234.28;;;20.37;58.33
71795;BME280;59641;45.188;5.712;2023-06-04T05:31:18;99224.19;;;20.38;58.40
71795;BME280;59641;45.188;5.712;2023-06-04T05:33:44;99228.81;;;20.37;58.20
71795;BME280;59641;45.188;5.712;2023-06-04T05:36:09;99232.63;;;20.36;58.39
71795;BME280;59641;45.188;5.712;2023-06-04T05:38:35;99224.44;;;20.36;58.09
71795;BME280;59641;45.188;5.712;2023-06-04T05:41:01;99229.09;;;20.36;58.22
71795;BME280;59641;45.188;5.712;2023-06-04T05:43:27;99228.56;;;20.34;58.09
71795;BME280;59641;45.188;5.712;2023-06-04T05:45:52;99235.13;;;20.33;57.90
71795;BME280;59641;45.188;5.712;2023-06-04T05:48:17;99224.50;;;20.31;58.05
71795;BME280;59641;45.188;5.712;2023-06-04T05:50:43;99230.22;;;20.30;58.19
71795;BME280;59641;45.188;5.712;2023-06-04T05:53:09;99228.34;;;20.30;57.73
71795;BME280;59641;45.188;5.712;2023-06-04T05:55:34;99244.69;;;20.30;57.78
71795;BME280;59641;45.188;5.712;2023-06-04T05:58:00;99240.31;;;20.29;57.90
71795;BME280;59641;45.188;5.712;2023-06-04T06:00:25;99230.22;;;20.30;57.73
71795;BME280;59641;45.188;5.712;2023-06-04T06:02:51;99239.50;;;20.29;58.04
71795;BME280;59641;45.188;5.712;2023-06-04T06:05:18;99240.06;;;20.31;57.98
71795;BME280;59641;45.188;5.712;2023-06-04T06:07:44;99224.22;;;20.33;58.15
71795;BME280;59641;45.188;5.712;2023-06-04T06:10:10;99230.22;;;20.35;58.10
71795;BME280;59641;45.188;5.712;2023-06-04T06:12:35;99225.78;;;20.39;57.78
71795;BME280;59641;45.188;5.712;2023-06-04T06:15:01;99232.56;;;20.41;58.10
71795;BME280;59641;45.188;5.712;2023-06-04T06:17:26;99229.28;;;20.45;58.17
71795;BME280;59641;45.188;5.712;2023-06-04T06:19:52;99234.97;;;20.48;57.92
71795;BME280;59641;45.188;5.712;2023-06-04T06:22:17;99233.28;;;20.52;58.09
71795;BME280;59641;45.188;5.712;2023-06-04T06:24:43;99230.25;;;20.54;58.10
71795;BME280;59641;45.188;5.712;2023-06-04T06:27:10;99235.19;;;20.57;57.92
71795;BME280;59641;45.188;5.712;2023-06-04T06:29:35;99237.06;;;20.56;58.00
71795;BME280;59641;45.188;5.712;2023-06-04T06:32:02;99236.00;;;20.57;57.89
71795;BME280;59641;45.188;5.712;2023-06-04T06:34:27;99230.81;;;20.56;57.98
71795;BME280;59641;45.188;5.712;2023-06-04T06:36:53;99230.25;;;20.54;58.12
71795;BME280;59641;45.188;5.712;2023-06-04T06:39:18;99242.53;;;20.56;57.81
71795;BME280;59641;45.188;5.712;2023-06-04T06:41:45;99234.06;;;20.58;58.06
71795;BME280;59641;45.188;5.712;2023-06-04T06:44:10;99238.94;;;20.61;58.11
71795;BME280;59641;45.188;5.712;2023-06-04T06:46:36;99241.91;;;20.64;57.86
71795;BME280;59641;45.188;5.712;2023-06-04T06:49:01;99239.41;;;20.68;57.67
71795;BME280;59641;45.188;5.712;2023-06-04T06:51:26;99232.56;;;20.71;57.66
71795;BME280;59641;45.188;5.712;2023-06-04T06:53:52;99235.53;;;20.74;57.70
71795;BME280;59641;45.188;5.712;2023-06-04T06:56:17;99232.75;;;20.79;57.73
71795;BME280;59641;45.188;5.712;2023-06-04T06:58:46;99228.34;;;20.83;57.29
71795;BME280;59641;45.188;5.712;2023-06-04T07:01:12;99217.66;;;20.87;57.55
71795;BME280;59641;45.188;5.712;2023-06-04T07:03:37;99230.41;;;20.92;57.52
71795;BME280;59641;45.188;5.712;2023-06-04T07:06:06;99224.09;;;20.96;57.65
71795;BME280;59641;45.188;5.712;2023-06-04T07:08:32;99216.97;;;21.00;57.23
71795;BME280;59641;45.188;5.712;2023-06-04T07:10:58;99224.25;;;21.05;57.61
71795;BME280;59641;45.188;5.712;2023-06-04T07:13:23;99224.47;;;21.09;57.27
71795;BME280;59641;45.188;5.712;2023-06-04T07:15:48;99225.53;;;21.13;57.15
71795;BME280;59641;45.188;5.712;2023-06-04T07:18:14;99219.19;;;21.17;57.06
71795;BME280;59641;45.188;5.712;2023-06-04T07:20:39;99223.47;;;21.23;57.04
71795;BME280;59641;45.188;5.712;2023-06-04T07:23:05;99229.97;;;21.27;56.97
71795;BME280;59641;45.188;5.712;2023-06-04T07:25:32;99227.47;;;21.31;57.43
71795;BME280;59641;45.188;5.712;2023-06-04T07:27:57;99237.47;;;21.36;56.91
71795;BME280;59641;45.188;5.712;2023-06-04T07:30:24;99236.91;;;21.39;56.66
71795;BME280;59641;45.188;5.712;2023-06-04T07:32:49;99230.88;;;21.42;56.87
71795;BME280;59641;45.188;5.712;2023-06-04T07:35:15;99230.28;;;21.45;56.28
71795;BME280;59641;45.188;5.712;2023-06-04T07:37:41;99225.66;;;21.45;56.34
71795;BME280;59641;45.188;5.712;2023-06-04T07:40:09;99223.13;;;21.49;56.29
71795;BME280;59641;45.188;5.712;2023-06-04T07:42:35;99221.72;;;21.52;56.28
71795;BME280;59641;45.188;5.712;2023-06-04T07:45:01;99224.38;;;21.57;56.70
71795;BME280;59641;45.188;5.712;2023-06-04T07:47:27;99219.97;;;21.61;56.13
71795;BME280;59641;45.188;5.712;2023-06-04T07:49:52;99224.81;;;21.64;56.25
71795;BME280;59641;45.188;5.712;2023-06-04T07:52:18;99219.88;;;21.66;56.24
71795;BME280;59641;45.188;5.712;2023-06-04T07:54:43;99218.47;;;21.68;56.13
71795;BME280;59641;45.188;5.712;2023-06-04T07:57:09;99217.38;;;21.69;56.20
71795;BME280;59641;45.188;5.712;2023-06-04T07:59:35;99218.72;;;21.72;56.32
71795;BME280;59641;45.188;5.712;2023-06-04T08:02:00;99216.19;;;21.76;56.36
71795;BME280;59641;45.188;5.712;2023-06-04T08:04:26;99211.84;;;21.75;55.79
71795;BME280;59641;45.188;5.712;2023-06-04T08:06:52;99211.84;;;21.75;55.83
71795;BME280;59641;45.188;5.712;2023-06-04T08:09:18;99204.66;;;21.79;56.09
71795;BME280;59641;45.188;5.712;2023-06-04T08:11:44;99217.41;;;21.83;56.17
71795;BME280;59641;45.188;5.712;2023-06-04T08:14:13;99210.78;;;21.89;55.69
71795;BME280;59641;45.188;5.712;2023-06-04T08:16:39;99213.41;;;21.95;55.70
71795;BME280;59641;45.188;5.712;2023-06-04T08:19:05;99203.22;;;22.00;55.50
71795;BME280;59641;45.188;5.712;2023-06-04T08:21:32;99199.38;;;22.01;55.01
71795;BME280;59641;45.188;5.712;2023-06-04T08:23:58;99207.78;;;22.05;55.56
71795;BME280;59641;45.188;5.712;2023-06-04T08:26:24;99192.69;;;22.07;55.51
71795;BME280;59641;45.188;5.712;2023-06-04T08:28:50;99196.19;;;22.13;55.70
71795;BME280;59641;45.188;5.712;2023-06-04T08:31:16;99195.56;;;22.16;55.32
71795;BME280;59641;45.188;5.712;2023-06-04T08:33:42;99188.09;;;22.22;55.19
71795;BME280;59641;45.188;5.712;2023-06-04T08:36:07;99187.22;;;22.26;54.89
71795;BME280;59641;45.188;5.712;2023-06-04T08:38:32;99180.84;;;22.31;54.81
71795;BME280;59641;45.188;5.712;2023-06-04T08:41:12;99182.06;;;22.39;54.93
71795;BME280;59641;45.188;5.712;2023-06-04T08:43:39;99181.75;;;22.40;54.43
71795;BME280;59641;45.188;5.712;2023-06-04T08:46:05;99179.22;;;22.44;54.80
71795;BME280;59641;45.188;5.712;2023-06-04T08:48:34;99182.19;;;22.47;54.45
71795;BME280;59641;45.188;5.712;2023-06-04T08:51:02;99185.31;;;22.54;54.04
71795;BME280;59641;45.188;5.712;2023-06-04T08:53:29;99182.59;;;22.54;54.00
71795;BME280;59641;45.188;5.712;2023-06-04T08:55:55;99187.44;;;22.58;53.18
71795;BME280;59641;45.188;5.712;2023-06-04T08:58:21;99190.88;;;22.63;53.34
71795;BME280;59641;45.188;5.712;2023-06-04T09:00:48;99189.66;;;22.69;53.54
71795;BME280;59641;45.188;5.712;2023-06-04T09:03:15;99186.03;;;22.74;53.60
71795;BME280;59641;45.188;5.712;2023-06-04T09:05:42;99192.81;;;22.76;52.15
71795;BME280;59641;45.188;5.712;2023-06-04T09:08:14;99192.19;;;22.80;51.81
71795;BME280;59641;45.188;5.712;2023-06-04T09:10:41;99184.81;;;22.80;51.76
71795;BME280;59641;45.188;5.712;2023-06-04T09:13:08;99181.47;;;22.83;52.82
71795;BME280;59641;45.188;5.712;2023-06-04T09:15:34;99181.66;;;22.87;51.95
71795;BME280;59641;45.188;5.712;2023-06-04T09:18:00;99177.69;;;22.93;51.90
71795;BME280;59641;45.188;5.712;2023-06-04T09:20:27;99176.78;;;22.97;51.69
71795;BME280;59641;45.188;5.712;2023-06-04T09:22:53;99170.94;;;23.04;52.67
71795;BME280;59641;45.188;5.712;2023-06-04T09:25:27;99183.06;;;23.12;52.15
71795;BME280;59641;45.188;5.712;2023-06-04T09:27:54;99172.63;;;23.14;52.17
71795;BME280;59641;45.188;5.712;2023-06-04T09:30:23;99166.53;;;23.17;52.31
71795;BME280;59641;45.188;5.712;2023-06-04T09:32:49;99159.13;;;23.17;52.37
71795;BME280;59641;45.188;5.712;2023-06-04T09:35:16;99165.91;;;23.20;52.07
71795;BME280;59641;45.188;5.712;2023-06-04T09:37:51;99165.63;;;23.22;52.18
71795;BME280;59641;45.188;5.712;2023-06-04T09:40:17;99160.13;;;23.22;51.04
71795;BME280;59641;45.188;5.712;2023-06-04T09:42:46;99160.13;;;23.22;50.93
71795;BME280;59641;45.188;5.712;2023-06-04T09:45:26;99168.72;;;23.29;51.76
71795;BME280;59641;45.188;5.712;2023-06-04T09:47:52;99158.09;;;23.27;51.33
71795;BME280;59641;45.188;5.712;2023-06-04T09:50:25;99163.25;;;23.29;51.16
71795;BME280;59641;45.188;5.712;2023-06-04T09:52:51;99156.47;;;23.26;50.55
71795;BME280;59641;45.188;5.712;2023-06-04T09:55:18;99154.25;;;23.28;50.44
71795;BME280;59641;45.188;5.712;2023-06-04T09:57:52;99155.56;;;23.31;50.48
71795;BME280;59641;45.188;5.712;2023-06-04T10:00:22;99150.56;;;23.33;50.82
71795;BME280;59641;45.188;5.712;2023-06-04T10:02:51;99138.16;;;23.35;50.71
71795;BME280;59641;45.188;5.712;2023-06-04T10:05:21;99141.63;;;23.41;50.52
71795;BME280;59641;45.188;5.712;2023-06-04T10:07:51;99136.31;;;23.45;49.38
71795;BME280;59641;45.188;5.712;2023-06-04T10:10:20;99141.50;;;23.46;49.45
71795;BME280;59641;45.188;5.712;2023-06-04T10:12:54;99135.88;;;23.51;49.00
71795;BME280;59641;45.188;5.712;2023-06-04T10:15:25;99134.44;;;23.54;49.54
71795;BME280;59641;45.188;5.712;2023-06-04T10:17:51;99128.34;;;23.57;46.99
71795;BME280;59641;45.188;5.712;2023-06-04T10:20:18;99120.31;;;23.60;47.78
71795;BME280;59641;45.188;5.712;2023-06-04T10:22:45;99121.50;;;23.68;47.77
71795;BME280;59641;45.188;5.712;2023-06-04T10:25:13;99115.09;;;23.73;45.89
71795;BME280;59641;45.188;5.712;2023-06-04T10:27:40;99110.31;;;23.78;47.50
71795;BME280;59641;45.188;5.712;2023-06-04T10:30:06;99107.94;;;23.86;48.49
71795;BME280;59641;45.188;5.712;2023-06-04T10:32:33;99110.53;;;23.91;48.03
71795;BME280;59641;45.188;5.712;2023-06-04T10:35:04;99103.00;;;23.96;47.86
71795;BME280;59641;45.188;5.712;2023-06-04T10:37:29;99102.88;;;24.01;47.70
71795;BME280;59641;45.188;5.712;2023-06-04T10:39:56;99110.94;;;24.07;48.05
71795;BME280;59641;45.188;5.712;2023-06-04T10:42:23;99103.38;;;24.12;47.97
71795;BME280;59641;45.188;5.712;2023-06-04T10:44:53;99105.66;;;24.19;47.56
71795;BME280;59641;45.188;5.712;2023-06-04T10:47:25;99099.75;;;24.26;47.26
71795;BME280;59641;45.188;5.712;2023-06-04T10:49:51;99099.28;;;24.32;46.82
71795;BME280;59641;45.188;5.712;2023-06-04T10:52:17;99099.94;;;24.38;47.47
71795;BME280;59641;45.188;5.712;2023-06-04T10:54:44;99093.69;;;24.46;48.21
71795;BME280;59641;45.188;5.712;2023-06-04T10:57:15;99095.66;;;24.54;48.16
71795;BME280;59641;45.188;5.712;2023-06-04T10:59:41;99080.84;;;24.64;48.16
71795;BME280;59641;45.188;5.712;2023-06-04T11:02:07;99085.22;;;24.74;47.60
71795;BME280;59641;45.188;5.712;2023-06-04T11:04:33;99083.28;;;24.83;48.50
71795;BME280;59641;45.188;5.712;2023-06-04T11:07:06;99084.56;;;24.94;48.69
71795;BME280;59641;45.188;5.712;2023-06-04T11:09:37;99077.63;;;25.05;48.66
71795;BME280;59641;45.188;5.712;2023-06-04T11:12:04;99078.13;;;25.16;46.73
71795;BME280;59641;45.188;5.712;2023-06-04T11:14:30;99080.25;;;25.28;47.75
71795;BME280;59641;45.188;5.712;2023-06-04T11:16:56;99078.28;;;25.37;47.88
71795;BME280;59641;45.188;5.712;2023-06-04T11:19:21;99083.59;;;25.51;48.35
71795;BME280;59641;45.188;5.712;2023-06-04T11:21:47;99082.94;;;25.63;48.28
71795;BME280;59641;45.188;5.712;2023-06-04T11:24:13;99078.38;;;25.76;47.67
71795;BME280;59641;45.188;5.712;2023-06-04T11:26:39;99068.97;;;25.85;47.35
71795;BME280;59641;45.188;5.712;2023-06-04T11:29:10;99065.72;;;26.01;47.60
71795;BME280;59641;45.188;5.712;2023-06-04T11:31:45;99064.34;;;26.16;47.61
71795;BME280;59641;45.188;5.712;2023-06-04T11:34:21;99062.03;;;26.26;47.69
71795;BME280;59641;45.188;5.712;2023-06-04T11:36:47;99055.50;;;26.40;47.21
71795;BME280;59641;45.188;5.712;2023-06-04T11:39:15;99059.47;;;26.51;46.72
71795;BME280;59641;45.188;5.712;2023-06-04T11:41:41;99057.16;;;26.62;47.00
71795;BME280;59641;45.188;5.712;2023-06-04T11:44:07;99052.09;;;26.72;46.95
71795;BME280;59641;45.188;5.712;2023-06-04T11:46:33;99054.06;;;26.84;47.31
71795;BME280;59641;45.188;5.712;2023-06-04T11:48:59;99056.44;;;26.94;47.96
71795;BME280;59641;45.188;5.712;2023-06-04T11:51:25;99042.47;;;26.99;46.32
71795;BME280;59641;45.188;5.712;2023-06-04T11:53:51;99047.63;;;27.01;45.36
71795;BME280;59641;45.188;5.712;2023-06-04T11:56:17;99046.28;;;27.07;45.78
71795;BME280;59641;45.188;5.712;2023-06-04T11:58:43;99044.94;;;27.13;46.48
71795;BME280;59641;45.188;5.712;2023-06-04T12:01:09;99046.03;;;27.21;46.77
71795;BME280;59641;45.188;5.712;2023-06-04T12:03:36;99045.50;;;27.28;46.41
71795;BME280;59641;45.188;5.712;2023-06-04T12:06:19;99040.81;;;27.40;46.73
71795;BME280;59641;45.188;5.712;2023-06-04T12:08:55;99036.69;;;27.47;45.84
71795;BME280;59641;45.188;5.712;2023-06-04T12:13:55;99029.28;;;27.59;44.29
71795;BME280;59641;45.188;5.712;2023-06-04T12:16:20;99036.84;;;27.62;44.97
71795;BME280;59641;45.188;5.712;2023-06-04T12:18:46;99022.38;;;27.66;44.44
71795;BME280;59641;45.188;5.712;2023-06-04T12:21:23;99018.28;;;27.72;43.46
71795;BME280;59641;45.188;5.712;2023-06-04T12:24:06;99015.97;;;27.74;41.80
71795;BME280;59641;45.188;5.712;2023-06-04T12:26:33;99019.19;;;27.76;44.64
71795;BME280;59641;45.188;5.712;2023-06-04T12:29:07;99013.13;;;27.82;42.74
71795;BME280;59641;45.188;5.712;2023-06-04T12:31:35;99004.53;;;27.84;43.45
71795;BME280;59641;45.188;5.712;2023-06-04T12:34:00;99004.28;;;27.89;44.31
71795;BME280;59641;45.188;5.712;2023-06-04T12:36:27;99007.19;;;27.93;41.44
71795;BME280;59641;45.188;5.712;2023-06-04T12:38:57;98995.44;;;27.96;42.16
71795;BME280;59641;45.188;5.712;2023-06-04T12:41:23;98993.97;;;27.98;40.76
71795;BME280;59641;45.188;5.712;2023-06-04T12:43:48;98987.50;;;27.94;39.50
71795;BME280;59641;45.188;5.712;2023-06-04T12:46:14;98989.94;;;27.96;38.84
71795;BME280;59641;45.188;5.712;2023-06-04T12:48:39;99002.69;;;28.00;41.81
71795;BME280;59641;45.188;5.712;2023-06-04T12:51:07;98998.53;;;28.07;41.18
71795;BME280;59641;45.188;5.712;2023-06-04T12:53:33;98987.50;;;28.07;40.88
71795;BME280;59641;45.188;5.712;2023-06-04T12:55:59;98982.47;;;28.09;40.74
71795;BME280;59641;45.188;5.712;2023-06-04T12:58:24;98988.91;;;28.13;39.59
71795;BME280;59641;45.188;5.712;2023-06-04T13:00:49;98984.97;;;28.14;39.22
71795;BME280;59641;45.188;5.712;2023-06-04T13:03:15;98990.16;;;28.15;39.71
71795;BME280;59641;45.188;5.712;2023-06-04T13:05:40;98997.63;;;28.15;40.57